createdAt,value
2022-12-23T00:00:50.959Z,99518.00
2022-12-23T00:10:50.891Z,99524.00
2022-12-23T00:20:50.841Z,99524.00
2022-12-23T00:30:50.966Z,99524.00
2022-12-23T00:41:09.269Z,99524.00
2022-12-23T00:51:09.911Z,99534.00
2022-12-23T01:01:28.359Z,99540.00
2022-12-23T01:11:28.987Z,99545.00
2022-12-23T01:21:28.995Z,99555.00
2022-12-23T01:31:29.025Z,99569.00
2022-12-23T01:41:47.463Z,99577.00
2022-12-23T01:51:47.956Z,99585.00
2022-12-23T02:02:06.555Z,99592.00
2022-12-23T02:12:07.014Z,99594.00
2022-12-23T02:22:07.063Z,99596.00
2022-12-23T02:32:07.050Z,99602.00
2022-12-23T02:42:07.107Z,99618.00
2022-12-23T02:52:07.090Z,99630.00
2022-12-23T03:02:07.284Z,99634.00
2022-12-23T03:12:07.107Z,99647.00
2022-12-23T03:22:07.110Z,99663.00
2022-12-23T03:32:07.191Z,99677.00
2022-12-23T03:42:07.077Z,99677.00
2022-12-23T03:52:07.076Z,99685.00
2022-12-23T04:02:07.356Z,99683.00
2022-12-23T04:12:07.145Z,99681.00
2022-12-23T04:22:07.159Z,99681.00
2022-12-23T04:32:07.251Z,99681.00
2022-12-23T04:42:07.276Z,99685.00
2022-12-23T04:52:07.207Z,99683.00
2022-12-23T05:02:07.619Z,99688.00
2022-12-23T05:12:08.279Z,99698.00
2022-12-23T05:22:08.261Z,99706.00
2022-12-23T05:32:11.555Z,99700.00
2022-12-23T05:42:12.270Z,99704.00
2022-12-23T05:52:12.267Z,99710.00
2022-12-23T06:02:12.540Z,99724.00
2022-12-23T06:12:13.338Z,99735.00
2022-12-23T06:22:13.593Z,99739.00
2022-12-23T06:32:14.005Z,99739.00
2022-12-23T06:42:14.339Z,99735.00
2022-12-23T06:52:14.320Z,99730.00
2022-12-23T07:02:17.670Z,99730.00
2022-12-23T07:12:18.875Z,99733.00
2022-12-23T07:22:19.856Z,99753.00
2022-12-23T07:32:20.614Z,99791.00
2022-12-23T07:52:22.438Z,99805.00
2022-12-23T08:02:24.567Z,99805.00
2022-12-23T08:12:24.557Z,99797.00
2022-12-23T08:22:24.498Z,99791.00
2022-12-23T08:32:24.543Z,99787.00
2022-12-23T08:42:24.547Z,99779.00
2022-12-23T08:52:24.496Z,99779.00
2022-12-23T09:02:24.887Z,99779.00
2022-12-23T09:12:25.595Z,99781.00
2022-12-23T09:22:25.536Z,99781.00
2022-12-23T09:32:25.662Z,99781.00
2022-12-23T09:42:25.556Z,99763.00
2022-12-23T09:52:25.665Z,99749.00
2022-12-23T10:02:25.863Z,99741.00
2022-12-23T10:12:31.650Z,99714.00
2022-12-23T10:22:30.648Z,99708.00
2022-12-23T10:32:30.728Z,99685.00
2022-12-23T10:42:30.590Z,99665.00
2022-12-23T10:52:30.647Z,99653.00
2022-12-23T11:02:30.845Z,99639.00
2022-12-23T11:12:30.640Z,99626.00
2022-12-23T11:22:30.707Z,99610.00
2022-12-23T11:32:30.696Z,99600.00
2022-12-23T11:42:30.687Z,99579.00
2022-12-23T11:52:30.831Z,99557.00
2022-12-23T12:02:30.885Z,99520.00
2022-12-23T12:12:30.745Z,99478.00
2022-12-23T12:22:30.806Z,99459.00
2022-12-23T12:32:30.860Z,99443.00
2022-12-23T12:42:30.871Z,99427.00
2022-12-23T12:52:30.847Z,99412.00
2022-12-23T13:02:33.983Z,99384.00
2022-12-23T13:12:33.940Z,99353.00
2022-12-23T13:22:33.907Z,99343.00
2022-12-23T13:32:34.040Z,99298.00
2022-12-23T13:42:33.841Z,99278.00
2022-12-23T13:52:33.907Z,99243.00
2022-12-23T14:02:34.007Z,99229.00
2022-12-23T14:12:33.943Z,99197.00
2022-12-23T14:22:33.935Z,99188.00
2022-12-23T14:32:34.045Z,99178.00
2022-12-23T14:42:33.973Z,99166.00
2022-12-23T14:52:35.875Z,99156.00
2022-12-23T15:02:36.219Z,99158.00
2022-12-23T15:12:37.129Z,99162.00
2022-12-23T15:22:37.001Z,99164.00
2022-12-23T15:32:37.015Z,99170.00
2022-12-23T15:42:37.847Z,99170.00
2022-12-23T15:52:38.083Z,99178.00
2022-12-23T16:12:42.076Z,99192.00
2022-12-23T16:22:42.404Z,99201.00
2022-12-23T16:32:42.173Z,99205.00
2022-12-23T16:42:42.084Z,99219.00
2022-12-23T16:52:42.077Z,99227.00
2022-12-23T17:02:44.494Z,99241.00
2022-12-23T17:12:45.195Z,99269.00
2022-12-23T17:22:45.260Z,99286.00
2022-12-23T17:32:45.251Z,99308.00
2022-12-23T17:42:45.271Z,99331.00
2022-12-23T17:53:04.538Z,99351.00
2022-12-23T18:03:04.293Z,99365.00
2022-12-23T18:13:04.238Z,99374.00
2022-12-23T18:23:04.769Z,99380.00
2022-12-23T18:33:05.327Z,99400.00
2022-12-23T18:43:05.253Z,99410.00
2022-12-23T18:53:05.350Z,99416.00
2022-12-23T19:03:05.398Z,99425.00
2022-12-23T19:13:05.304Z,99425.00
2022-12-23T19:23:05.399Z,99437.00
2022-12-23T19:33:05.367Z,99449.00
2022-12-23T19:43:05.372Z,99457.00
2022-12-23T19:53:05.363Z,99478.00
2022-12-23T20:03:05.557Z,99498.00
2022-12-23T20:13:05.342Z,99518.00
2022-12-23T20:23:05.390Z,99528.00
2022-12-23T20:33:05.480Z,99542.00
2022-12-23T20:43:08.138Z,99559.00
2022-12-23T20:53:07.473Z,99573.00
2022-12-23T21:03:10.641Z,99588.00
2022-12-23T21:13:09.549Z,99598.00
2022-12-23T21:23:09.546Z,99610.00
2022-12-23T21:33:09.510Z,99620.00
2022-12-23T21:43:09.532Z,99632.00
2022-12-23T21:53:09.481Z,99651.00
2022-12-23T22:03:12.583Z,99669.00
2022-12-23T22:13:12.482Z,99685.00
2022-12-23T22:23:12.520Z,99698.00
2022-12-23T22:33:12.532Z,99712.00
2022-12-23T22:43:12.553Z,99726.00
2022-12-23T22:53:12.639Z,99749.00
2022-12-23T23:03:12.559Z,99771.00
2022-12-23T23:13:12.546Z,99789.00
2022-12-23T23:23:12.569Z,99797.00
2022-12-23T23:33:12.661Z,99803.00
2022-12-23T23:43:12.644Z,99815.00
2022-12-23T23:53:12.711Z,99826.00
